Flight Track Log - Related Links

Times and Time Zones

All times are in EDT time to prevent confusion due to time zone crossing. See the SLI2424 flight status page for this flight to view local times or setup timezone preferences in your user account.

Time Position Orientation Groundspeed Altitude Reporting Facility
EDT Latitude Longitude Course Direction KTS MPH feet Rate Location/Type
Sat 09:54:32 PM 19.6232 -99.0284 12° North  Level Estimated
Sat 09:55:32 PM 19.7451 -98.9999 12° North  Level Estimated
Sat 09:56:32 PM 19.8671 -98.9713 12° North  Level Estimated
Sat 09:57:32 PM 19.9890 -98.9426 12° North  Level Estimated
Sat 09:58:32 PM 20.1108 -98.9139 12° North  Level Estimated
Sat 09:59:32 PM 20.2327 -98.8852 12° North  Level Estimated
Sat 10:00:32 PM 20.3546 -98.8565 12° North  Level Estimated
Sat 10:01:32 PM 20.4765 -98.8276 12° North  Level Estimated
Sat 10:02:32 PM 20.5984 -98.7988 13° North  Level Estimated
Sat 10:03:32 PM 20.7202 -98.7699 13° North  Level Estimated
Sat 10:04:32 PM 20.8421 -98.7409 13° North  Level Estimated
Sat 10:05:32 PM 20.9640 -98.7119 13° North  Level Estimated
Sat 10:06:32 PM 21.0858 -98.6829 13° North  Level Estimated
Sat 10:07:32 PM 21.2077 -98.6538 13° North  Level Estimated
Sat 10:08:32 PM 21.3295 -98.6246 13° North  Level Estimated
Sat 10:09:32 PM 21.4514 -98.5954 13° North  Level Estimated
Sat 10:10:32 PM 21.5732 -98.5662 13° North  Level Estimated
Sat 10:11:32 PM 21.6950 -98.5369 13° North  Level Estimated
Sat 10:12:32 PM 21.8169 -98.5076 13° North  Level Estimated
Sat 10:13:32 PM 21.9387 -98.4782 13° North  Level Estimated
Sat 10:14:32 PM 22.0605 -98.4487 13° North  Level Estimated
Sat 10:15:32 PM 22.1823 -98.4193 13° North  Level Estimated
Sat 10:16:32 PM 22.3041 -98.3897 13° North  Level Estimated
Sat 10:17:32 PM 22.4259 -98.3601 13° North  Level Estimated
Sat 10:18:32 PM 22.5477 -98.3305 13° North  Level Estimated
Sat 10:19:32 PM 22.6695 -98.3008 13° North  Level Estimated
Sat 10:20:32 PM 22.7913 -98.2710 13° North  Level Estimated
Sat 10:21:32 PM 22.9131 -98.2412 13° North  Level Estimated
Sat 10:22:32 PM 23.0348 -98.2114 13° North  Level Estimated
Sat 10:23:32 PM 23.1566 -98.1814 13° North  Level Estimated
Sat 10:24:32 PM 23.2784 -98.1515 13° North  Level Estimated
Sat 10:25:32 PM 23.4001 -98.1215 13° North  Level Estimated
Sat 10:26:32 PM 23.5219 -98.0914 13° North  Level Estimated
Sat 10:27:32 PM 23.6436 -98.0612 13° North  Level Estimated
Sat 10:28:32 PM 23.7654 -98.0311 13° North  Level Estimated
Sat 10:29:32 PM 23.8871 -98.0008 13° North  Level Estimated
Sat 10:30:32 PM 24.0088 -97.9705 13° North  Level Estimated
Sat 10:31:32 PM 24.1305 -97.9402 13° North  Level Estimated
Sat 10:32:32 PM 24.2523 -97.9098 13° North  Level Estimated
Sat 10:33:32 PM 24.3740 -97.8793 13° North  Level Estimated
Sat 10:34:32 PM 24.4957 -97.8487 13° North  Level Estimated
Sat 10:35:32 PM 24.6174 -97.8182 13° North  Level Estimated
Sat 10:36:32 PM 24.7390 -97.7875 13° North  Level Estimated
Sat 10:37:32 PM 24.8607 -97.7568 13° North  Level Estimated
Sat 10:38:32 PM 24.9824 -97.7260 13° North  Level Estimated
Sat 10:39:32 PM 25.1041 -97.6952 13° North  Level Estimated
Sat 10:40:32 PM 25.2257 -97.6643 13° North  Level Estimated
Sat 10:41:32 PM 25.3474 -97.6333 13° North  Level Estimated
Sat 10:42:32 PM 25.4690 -97.6023 13° North  Level Estimated
Sat 10:43:32 PM 25.5907 -97.5712 13° North  Level Estimated
Sat 10:44:32 PM 25.7123 -97.5401 13° North  Level Estimated
Sat 10:45:32 PM 25.8340 -97.5089 193° South  Level Estimated
Sat 10:46:32 PM 25.7123 -97.5401 13° North  Level Estimated
Sat 10:47:32 PM 25.8340 -97.5089 193° South  Level Estimated
Sat 10:48:32 PM 25.7123 -97.5401 13° North  Level Estimated
Sat 10:49:32 PM 25.8340 -97.5089 193° South  Level Estimated
Sat 10:50:32 PM 25.7123 -97.5401 13° North  Level Estimated
Sat 10:51:32 PM 25.8340 -97.5089 193° South  Level Estimated
Sat 10:52:32 PM 25.7123 -97.5401 13° North  Level Estimated
Sat 10:53:32 PM 25.8340 -97.5089 193° South  Level Estimated
Sat 10:54:32 PM 25.7123 -97.5401 13° North  Level Estimated
Sat 10:55:32 PM 25.8340 -97.5089 193° South  Level Estimated
Sat 10:56:32 PM 25.7123 -97.5401 13° North  Level Estimated
Sat 10:57:32 PM 25.8340 -97.5089 193° South  Level Estimated
Sat 10:58:32 PM 25.7123 -97.5401 13° North  Level Estimated
Sat 10:59:32 PM 25.8340 -97.5089 193° South  Level Estimated
Sat 11:00:32 PM 25.7123 -97.5401 193° South  Level Estimated

Login

Don't have an account? Register now (free) for customized features, flight alerts, and more!